createdAt,value
2019-01-18T00:00:42.223Z,0.80
2019-01-18T00:03:08.823Z,0.80
2019-01-18T00:05:35.945Z,0.80
2019-01-18T00:08:02.633Z,0.70
2019-01-18T00:10:29.535Z,0.80
2019-01-18T00:12:56.018Z,0.80
2019-01-18T00:15:23.325Z,0.80
2019-01-18T00:17:50.060Z,0.80
2019-01-18T00:20:16.538Z,0.70
2019-01-18T00:22:42.925Z,0.70
2019-01-18T00:25:09.727Z,0.70
2019-01-18T00:27:36.476Z,0.70
2019-01-18T00:30:09.671Z,0.70
2019-01-18T00:32:36.364Z,0.70
2019-01-18T00:35:04.110Z,0.70
2019-01-18T00:37:30.691Z,0.60
2019-01-18T00:40:00.526Z,0.70
2019-01-18T00:42:27.273Z,0.60
2019-01-18T00:44:53.555Z,0.60
2019-01-18T00:47:20.025Z,0.50
2019-01-18T00:49:46.400Z,0.60
2019-01-18T00:52:12.926Z,0.70
2019-01-18T00:54:39.655Z,0.70
2019-01-18T00:57:06.318Z,0.60
2019-01-18T00:59:36.288Z,0.50
2019-01-18T01:02:01.100Z,0.50
2019-01-18T01:04:28.428Z,0.50
2019-01-18T01:06:55.532Z,0.40
2019-01-18T01:09:22.272Z,0.40
2019-01-18T01:11:48.610Z,0.40
2019-01-18T01:14:15.154Z,0.30
2019-01-18T01:16:42.104Z,0.30
2019-01-18T01:19:09.527Z,0.30
2019-01-18T01:21:35.935Z,0.40
2019-01-18T01:24:03.040Z,0.40
2019-01-18T01:26:29.552Z,0.40
2019-01-18T01:28:56.179Z,0.40
2019-01-18T01:31:23.111Z,0.30
2019-01-18T01:33:49.628Z,0.30
2019-01-18T01:36:16.569Z,0.30
2019-01-18T01:38:43.045Z,0.30
2019-01-18T01:41:09.525Z,0.30
2019-01-18T01:43:36.688Z,0.20
2019-01-18T01:46:03.609Z,0.20
2019-01-18T01:48:30.003Z,0.20
2019-01-18T01:50:57.468Z,0.20
2019-01-18T01:53:24.081Z,0.20
2019-01-18T01:55:50.451Z,0.30
2019-01-18T01:58:17.382Z,0.20
2019-01-18T02:00:44.023Z,0.20
2019-01-18T02:03:10.680Z,0.20
2019-01-18T02:05:37.365Z,0.10
2019-01-18T02:08:03.882Z,0.10
2019-01-18T02:10:33.778Z,0.10
2019-01-18T02:13:00.360Z,0.20
2019-01-18T02:15:27.239Z,0.30
2019-01-18T02:17:54.709Z,0.20
2019-01-18T02:20:22.435Z,0.10
2019-01-18T02:22:51.040Z,0.20
2019-01-18T02:25:18.132Z,0.10
2019-01-18T02:27:44.881Z,0.20
2019-01-18T02:30:27.970Z,0.20
2019-01-18T02:32:54.586Z,0.10
2019-01-18T02:35:23.295Z,0.10
2019-01-18T02:37:49.553Z,0.10
2019-01-18T02:40:16.515Z,0.10
2019-01-18T02:42:44.777Z,0.10
2019-01-18T02:45:16.565Z,0.20
2019-01-18T02:47:43.321Z,0.10
2019-01-18T02:50:10.769Z,0.10
2019-01-18T02:52:37.281Z,0.10
2019-01-18T02:55:06.678Z,0.20
2019-01-18T02:57:33.172Z,0.20
2019-01-18T03:00:04.657Z,0.10
2019-01-18T03:02:28.875Z,0.20
2019-01-18T03:04:58.195Z,0.10
2019-01-18T03:07:24.772Z,0.10
2019-01-18T03:09:52.280Z,0.10
2019-01-18T03:12:19.095Z,0.10
2019-01-18T03:14:49.220Z,0.10
2019-01-18T03:17:15.845Z,0.10
2019-01-18T03:19:42.330Z,0.10
2019-01-18T03:22:09.246Z,0.00
2019-01-18T03:24:35.602Z,0.10
2019-01-18T03:27:02.057Z,0.00
2019-01-18T03:29:28.751Z,0.10
2019-01-18T03:31:55.196Z,0.10
2019-01-18T03:34:22.135Z,0.10
2019-01-18T03:36:48.518Z,0.10
2019-01-18T03:39:15.003Z,0.10
2019-01-18T03:41:41.495Z,0.10
2019-01-18T03:44:07.793Z,0.00
2019-01-18T03:46:34.736Z,0.00
2019-01-18T03:49:01.532Z,0.00
2019-01-18T03:51:27.913Z,0.00
2019-01-18T03:53:54.879Z,-0.10
2019-01-18T03:56:21.287Z,0.00
2019-01-18T03:58:47.989Z,0.00
2019-01-18T04:01:14.229Z,-0.10
2019-01-18T04:03:40.545Z,0.00
2019-01-18T04:06:07.355Z,0.00
2019-01-18T04:08:33.766Z,0.00
2019-01-18T04:11:01.364Z,0.10
2019-01-18T04:13:27.994Z,0.00
2019-01-18T04:15:54.967Z,-0.10
2019-01-18T04:18:21.316Z,-0.10
2019-01-18T04:20:47.756Z,-0.10
2019-01-18T04:23:14.556Z,-0.10
2019-01-18T04:25:41.449Z,-0.20
2019-01-18T04:28:07.865Z,-0.20
2019-01-18T04:30:34.211Z,-0.20
2019-01-18T04:33:00.697Z,-0.30
2019-01-18T04:35:27.655Z,-0.30
2019-01-18T04:37:54.149Z,-0.30
2019-01-18T04:40:26.307Z,-0.30
2019-01-18T04:42:52.922Z,-0.30
2019-01-18T04:45:20.057Z,-0.30
2019-01-18T04:47:46.427Z,-0.30
2019-01-18T04:50:23.846Z,-0.40
2019-01-18T04:52:50.600Z,-0.30
2019-01-18T04:55:17.109Z,-0.30
2019-01-18T04:57:44.157Z,-0.30
2019-01-18T05:00:21.414Z,-0.20
2019-01-18T05:02:47.874Z,-0.30
2019-01-18T05:05:15.385Z,-0.30
2019-01-18T05:07:41.750Z,-0.30
2019-01-18T05:10:15.688Z,-0.30
2019-01-18T05:12:42.215Z,-0.30
2019-01-18T05:15:14.351Z,-0.40
2019-01-18T05:17:40.612Z,-0.30
2019-01-18T05:20:09.143Z,-0.30
2019-01-18T05:22:35.411Z,-0.40
2019-01-18T05:25:02.185Z,-0.40
2019-01-18T05:27:28.743Z,-0.40
2019-01-18T05:29:55.118Z,-0.40
2019-01-18T05:32:26.357Z,-0.40
2019-01-18T05:34:52.752Z,-0.40
2019-01-18T05:37:19.131Z,-0.40
2019-01-18T05:39:50.346Z,-0.50
2019-01-18T05:42:16.589Z,-0.40
2019-01-18T05:44:42.864Z,-0.50
2019-01-18T05:47:15.310Z,-0.40
2019-01-18T05:49:41.973Z,-0.50
2019-01-18T05:52:08.683Z,-0.50
2019-01-18T05:54:35.160Z,-0.60
2019-01-18T05:57:02.479Z,-0.50
2019-01-18T05:59:28.950Z,-0.50
2019-01-18T06:01:55.547Z,-0.50
2019-01-18T06:04:22.218Z,-0.50
2019-01-18T06:06:48.613Z,-0.60
2019-01-18T06:09:15.215Z,-0.50
2019-01-18T06:11:44.147Z,-0.60
2019-01-18T06:14:10.433Z,-0.70
2019-01-18T06:16:37.094Z,-0.60
2019-01-18T06:19:06.347Z,-0.60
2019-01-18T06:21:35.224Z,-0.60
2019-01-18T06:24:02.299Z,-0.70
2019-01-18T06:26:28.795Z,-0.70
2019-01-18T06:28:55.933Z,-0.70
2019-01-18T06:31:22.289Z,-0.70
2019-01-18T06:33:49.022Z,-0.60
2019-01-18T06:36:15.328Z,-0.60
2019-01-18T06:38:41.824Z,-0.60
2019-01-18T06:41:10.195Z,-0.60
2019-01-18T06:43:37.352Z,-0.50
2019-01-18T06:46:06.946Z,-0.60
2019-01-18T06:48:34.374Z,-0.60
2019-01-18T06:51:01.544Z,-0.60
2019-01-18T06:53:27.918Z,-0.60
2019-01-18T06:55:56.192Z,-0.50
2019-01-18T06:58:22.975Z,-0.50
2019-01-18T07:00:49.874Z,-0.50
2019-01-18T07:03:16.464Z,-0.50
2019-01-18T07:05:42.873Z,-0.50
2019-01-18T07:08:10.676Z,-0.60
2019-01-18T07:10:37.072Z,-0.60
2019-01-18T07:13:09.292Z,-0.60
2019-01-18T07:15:35.930Z,-0.60
2019-01-18T07:18:02.386Z,-0.60
2019-01-18T07:20:28.898Z,-0.50
2019-01-18T07:22:55.280Z,-0.50
2019-01-18T07:25:27.554Z,-0.50
2019-01-18T07:27:55.391Z,-0.60
2019-01-18T07:30:25.028Z,-0.60
2019-01-18T07:32:51.788Z,-0.60
2019-01-18T07:35:21.145Z,-0.60
2019-01-18T07:37:57.813Z,-0.60
2019-01-18T07:40:24.252Z,-0.70
2019-01-18T07:42:50.539Z,-0.70
2019-01-18T07:45:23.530Z,-0.70
2019-01-18T07:47:56.637Z,-0.70
2019-01-18T07:50:23.050Z,-0.70
2019-01-18T07:52:52.702Z,-0.60
2019-01-18T07:55:19.511Z,-0.60
2019-01-18T07:57:46.836Z,-0.50
2019-01-18T08:00:19.538Z,-0.50
2019-01-18T08:02:46.487Z,-0.50
2019-01-18T08:05:15.473Z,-0.50
2019-01-18T08:07:42.599Z,-0.50
2019-01-18T08:10:11.986Z,-0.40
2019-01-18T08:12:38.805Z,-0.40
2019-01-18T08:15:08.880Z,-0.40
2019-01-18T08:17:35.197Z,-0.40
2019-01-18T08:20:03.865Z,-0.40
2019-01-18T08:22:30.669Z,-0.40
2019-01-18T08:24:57.249Z,-0.30
2019-01-18T08:27:23.613Z,-0.40
2019-01-18T08:29:49.901Z,-0.40
2019-01-18T08:32:16.824Z,-0.40
2019-01-18T08:34:43.458Z,-0.40
2019-01-18T08:37:09.850Z,-0.30
2019-01-18T08:39:37.150Z,-0.30
2019-01-18T08:42:03.539Z,-0.40
2019-01-18T08:44:30.082Z,-0.40
2019-01-18T08:46:56.888Z,-0.40
2019-01-18T08:49:23.380Z,-0.30
2019-01-18T08:51:51.392Z,-0.40
2019-01-18T08:54:18.327Z,-0.30
2019-01-18T08:56:44.709Z,-0.30
2019-01-18T08:59:11.500Z,-0.30
2019-01-18T09:01:37.911Z,-0.30
2019-01-18T09:04:04.710Z,-0.30
2019-01-18T09:06:31.636Z,-0.30
2019-01-18T09:08:58.392Z,-0.20
2019-01-18T09:11:24.726Z,-0.20
2019-01-18T09:13:51.281Z,-0.20
2019-01-18T09:16:17.821Z,-0.20
2019-01-18T09:18:44.072Z,-0.30
2019-01-18T09:21:10.501Z,-0.20
2019-01-18T09:23:37.611Z,-0.20
2019-01-18T09:26:04.605Z,-0.20
2019-01-18T09:28:31.708Z,-0.10
2019-01-18T09:30:58.886Z,0.00
2019-01-18T09:33:25.661Z,0.00
2019-01-18T09:35:55.598Z,0.00
2019-01-18T09:38:22.593Z,0.10
2019-01-18T09:40:49.301Z,0.10
2019-01-18T09:43:15.682Z,0.10
2019-01-18T09:45:42.155Z,0.10
2019-01-18T09:48:10.442Z,0.00
2019-01-18T09:50:37.110Z,0.00
2019-01-18T09:53:05.720Z,0.10
2019-01-18T09:55:34.003Z,0.10
2019-01-18T09:58:02.644Z,0.10
2019-01-18T10:00:38.027Z,0.20
2019-01-18T10:03:14.736Z,0.20
2019-01-18T10:05:41.298Z,0.20
2019-01-18T10:08:08.097Z,0.30
2019-01-18T10:10:34.726Z,0.30
2019-01-18T10:13:01.516Z,0.30
2019-01-18T10:15:31.162Z,0.30
2019-01-18T10:18:00.711Z,0.40
2019-01-18T10:20:26.162Z,0.40
2019-01-18T10:22:52.706Z,0.40
2019-01-18T10:25:22.382Z,0.50
2019-01-18T10:27:49.086Z,0.60
2019-01-18T10:30:17.913Z,0.70
2019-01-18T10:32:44.665Z,0.80
2019-01-18T10:35:11.903Z,0.80
2019-01-18T10:37:38.388Z,0.80
2019-01-18T10:40:08.042Z,0.90
2019-01-18T10:42:34.764Z,1.00
2019-01-18T10:45:01.550Z,1.00
2019-01-18T10:47:28.076Z,1.00
2019-01-18T10:49:54.384Z,1.00
2019-01-18T10:52:20.699Z,1.00
2019-01-18T10:54:46.989Z,1.00
2019-01-18T10:57:13.661Z,1.00
2019-01-18T10:59:39.955Z,1.10
2019-01-18T11:02:09.311Z,1.20
2019-01-18T11:04:35.740Z,1.10
2019-01-18T11:07:02.611Z,1.10
2019-01-18T11:09:28.944Z,1.10
2019-01-18T11:11:55.557Z,1.10
2019-01-18T11:14:21.935Z,1.00
2019-01-18T11:16:51.610Z,1.10
2019-01-18T11:19:17.925Z,1.10
2019-01-18T11:21:44.557Z,1.20
2019-01-18T11:24:11.155Z,1.30
2019-01-18T11:26:37.499Z,1.30
2019-01-18T11:29:10.073Z,1.40
2019-01-18T11:31:36.840Z,1.50
2019-01-18T11:34:03.895Z,1.40
2019-01-18T11:36:30.475Z,1.40
2019-01-18T11:38:57.507Z,1.40
2019-01-18T11:41:24.217Z,1.30
2019-01-18T11:43:50.480Z,1.30
2019-01-18T11:46:17.038Z,1.30
2019-01-18T11:48:43.795Z,1.30
2019-01-18T11:51:10.497Z,1.20
2019-01-18T11:53:37.847Z,1.30
2019-01-18T11:56:05.184Z,1.30
2019-01-18T11:58:32.469Z,1.30
2019-01-18T12:00:59.054Z,1.40
2019-01-18T12:03:25.528Z,1.40
2019-01-18T12:05:51.941Z,1.40
2019-01-18T12:08:18.492Z,1.40
2019-01-18T12:10:47.628Z,1.50
2019-01-18T12:13:14.557Z,1.60
2019-01-18T12:15:41.828Z,1.60
2019-01-18T12:18:08.351Z,1.60
2019-01-18T12:20:34.913Z,1.70
2019-01-18T12:23:02.194Z,1.70
2019-01-18T12:25:34.868Z,1.70
2019-01-18T12:28:01.626Z,1.80
2019-01-18T12:30:31.511Z,1.80
2019-01-18T12:33:11.554Z,1.80
2019-01-18T12:35:38.918Z,1.80
2019-01-18T12:38:05.890Z,1.90
2019-01-18T12:40:33.664Z,1.90
2019-01-18T12:43:01.109Z,1.90
2019-01-18T12:45:29.890Z,2.00
2019-01-18T12:47:58.560Z,2.00
2019-01-18T12:50:32.176Z,2.00
2019-01-18T12:53:05.942Z,2.00
2019-01-18T12:55:34.864Z,2.00
2019-01-18T12:58:02.514Z,2.00
2019-01-18T13:00:30.997Z,2.00
2019-01-18T13:02:58.835Z,2.00
2019-01-18T13:05:40.422Z,2.10
2019-01-18T13:08:08.265Z,2.10
2019-01-18T13:10:35.028Z,2.10
2019-01-18T13:13:02.257Z,2.20
2019-01-18T13:15:53.499Z,2.10
2019-01-18T13:18:22.744Z,2.10
2019-01-18T13:20:52.790Z,2.20
2019-01-18T13:23:19.094Z,2.20
2019-01-18T13:25:45.514Z,2.10
2019-01-18T13:28:18.350Z,2.20
2019-01-18T13:30:48.136Z,2.20
2019-01-18T13:33:14.595Z,2.20
2019-01-18T13:35:41.051Z,2.30
2019-01-18T13:38:07.574Z,2.30
2019-01-18T13:40:36.218Z,2.20
2019-01-18T13:43:03.241Z,2.30
2019-01-18T13:45:29.970Z,2.20
2019-01-18T13:48:01.725Z,2.20
2019-01-18T13:50:32.891Z,2.20
2019-01-18T13:52:59.718Z,2.20
2019-01-18T13:55:29.081Z,2.20
2019-01-18T13:57:57.809Z,2.20
2019-01-18T14:00:26.677Z,2.20
2019-01-18T14:02:53.248Z,2.20
2019-01-18T14:05:19.841Z,2.20
2019-01-18T14:07:46.421Z,2.20
2019-01-18T14:10:22.762Z,2.20
2019-01-18T14:12:49.358Z,2.20
2019-01-18T14:15:18.076Z,2.10
2019-01-18T14:17:44.996Z,2.20
2019-01-18T14:20:20.848Z,2.20
2019-01-18T14:22:45.157Z,2.20
2019-01-18T14:25:11.961Z,2.20
2019-01-18T14:27:38.490Z,2.30
2019-01-18T14:30:08.906Z,2.20
2019-01-18T14:32:38.084Z,2.20
2019-01-18T14:35:06.351Z,2.20
2019-01-18T14:37:33.367Z,2.20
2019-01-18T14:40:04.178Z,2.10
2019-01-18T14:42:32.088Z,2.10
2019-01-18T14:45:00.949Z,2.10
2019-01-18T14:47:27.382Z,2.10
2019-01-18T14:49:55.569Z,2.10
2019-01-18T14:52:35.277Z,2.10
2019-01-18T14:55:01.936Z,2.00
2019-01-18T14:57:28.452Z,2.00
2019-01-18T14:59:58.731Z,2.00
2019-01-18T15:02:25.568Z,2.00
2019-01-18T15:04:52.686Z,2.00
2019-01-18T15:07:19.051Z,2.00
2019-01-18T15:09:45.469Z,2.00
2019-01-18T15:12:12.296Z,2.10
2019-01-18T15:14:39.240Z,2.00
2019-01-18T15:17:06.414Z,2.00
2019-01-18T15:19:34.158Z,1.90
2019-01-18T15:22:01.446Z,2.00
2019-01-18T15:24:32.916Z,2.00
2019-01-18T15:27:03.021Z,2.00
2019-01-18T15:29:29.992Z,2.00
2019-01-18T15:31:56.889Z,2.00
2019-01-18T15:34:23.135Z,2.00
2019-01-18T15:36:49.483Z,2.00
2019-01-18T15:39:15.859Z,2.00
2019-01-18T15:41:42.363Z,2.00
2019-01-18T15:44:08.943Z,2.00
2019-01-18T15:46:39.132Z,2.00
2019-01-18T15:49:07.609Z,2.00
2019-01-18T15:51:34.194Z,2.10
2019-01-18T15:54:01.557Z,2.00
2019-01-18T15:56:28.324Z,2.00
2019-01-18T15:58:54.642Z,2.00
2019-01-18T16:01:21.421Z,2.00
2019-01-18T16:03:48.061Z,2.00
2019-01-18T16:06:14.409Z,2.10
2019-01-18T16:08:40.945Z,2.10
2019-01-18T16:11:07.795Z,2.10
2019-01-18T16:13:34.488Z,2.10
2019-01-18T16:16:04.219Z,2.10
2019-01-18T16:18:31.062Z,2.10
2019-01-18T16:20:58.336Z,2.10
2019-01-18T16:23:24.868Z,2.10
2019-01-18T16:25:51.818Z,2.10
2019-01-18T16:28:24.379Z,2.10
2019-01-18T16:30:50.640Z,2.10
2019-01-18T16:33:23.381Z,2.10
2019-01-18T16:35:45.744Z,2.10
2019-01-18T16:38:12.559Z,2.10
2019-01-18T16:40:39.540Z,2.10
2019-01-18T16:43:10.902Z,2.10
2019-01-18T16:45:37.221Z,2.10
2019-01-18T16:48:03.738Z,2.10
2019-01-18T16:50:30.725Z,2.10
2019-01-18T16:52:58.042Z,2.10
2019-01-18T16:55:25.006Z,2.10
2019-01-18T16:57:51.721Z,2.10
2019-01-18T17:00:33.378Z,2.10
2019-01-18T17:03:03.216Z,2.00
2019-01-18T17:05:29.998Z,2.00
2019-01-18T17:07:56.593Z,2.00
2019-01-18T17:10:23.144Z,2.00
2019-01-18T17:12:50.956Z,2.00
2019-01-18T17:15:17.679Z,2.00
2019-01-18T17:17:44.569Z,1.90
2019-01-18T17:20:17.226Z,1.90
2019-01-18T17:22:43.758Z,1.90
2019-01-18T17:25:10.859Z,1.90
2019-01-18T17:27:37.307Z,1.90
2019-01-18T17:30:07.834Z,1.90
2019-01-18T17:32:34.917Z,1.90
2019-01-18T17:35:01.464Z,1.90
2019-01-18T17:37:28.335Z,1.80
2019-01-18T17:40:00.172Z,1.80
2019-01-18T17:42:28.487Z,1.80
2019-01-18T17:45:19.356Z,1.80
2019-01-18T17:48:12.786Z,1.80
2019-01-18T17:50:48.970Z,1.80
2019-01-18T17:53:19.084Z,1.80
2019-01-18T17:55:58.501Z,1.80
2019-01-18T17:58:44.164Z,1.80
2019-01-18T18:01:15.309Z,1.80
2019-01-18T18:04:03.757Z,1.80
2019-01-18T18:06:37.385Z,1.80
2019-01-18T18:09:16.846Z,1.80
2019-01-18T18:11:49.659Z,1.80
2019-01-18T18:14:20.518Z,1.70
2019-01-18T18:17:12.169Z,1.70
2019-01-18T18:19:42.504Z,1.70
2019-01-18T18:22:29.466Z,1.70
2019-01-18T18:25:27.801Z,1.70
2019-01-18T18:28:09.844Z,1.70
2019-01-18T18:30:42.863Z,1.70
2019-01-18T18:33:35.786Z,1.70
2019-01-18T18:36:28.140Z,1.70
2019-01-18T18:39:04.306Z,1.60
2019-01-18T18:41:52.732Z,1.60
2019-01-18T18:44:45.930Z,1.60
2019-01-18T18:47:19.335Z,1.60
2019-01-18T18:49:49.566Z,1.60
2019-01-18T18:52:54.258Z,1.60
2019-01-18T18:55:34.145Z,1.60
2019-01-18T18:58:27.234Z,1.60
2019-01-18T19:01:15.960Z,1.50
2019-01-18T19:04:00.734Z,1.50
2019-01-18T19:06:36.124Z,1.60
2019-01-18T19:09:21.357Z,1.50
2019-01-18T19:12:01.150Z,1.50
2019-01-18T19:14:41.784Z,1.50
2019-01-18T19:17:14.686Z,1.50
2019-01-18T19:20:03.705Z,1.50
2019-01-18T19:22:34.169Z,1.40
2019-01-18T19:25:25.913Z,1.50
2019-01-18T19:28:11.037Z,1.40
2019-01-18T19:30:59.925Z,1.40
2019-01-18T19:33:33.222Z,1.40
2019-01-18T19:36:17.918Z,1.40
2019-01-18T19:39:06.421Z,1.40
2019-01-18T19:41:45.915Z,1.40
2019-01-18T19:44:28.005Z,1.40
2019-01-18T19:47:07.642Z,1.40
2019-01-18T19:49:58.583Z,1.40
2019-01-18T19:52:28.766Z,1.40
2019-01-18T19:55:20.204Z,1.30
2019-01-18T19:58:11.210Z,1.40
2019-01-18T20:00:59.005Z,1.30
2019-01-18T20:03:35.120Z,1.40
2019-01-18T20:06:25.108Z,1.30
2019-01-18T20:09:12.286Z,1.30
2019-01-18T20:11:54.084Z,1.30
2019-01-18T20:14:30.420Z,1.20
2019-01-18T20:17:04.146Z,1.20
2019-01-18T20:19:42.965Z,1.20
2019-01-18T20:22:16.056Z,1.20
2019-01-18T20:25:06.309Z,1.20
2019-01-18T20:27:51.046Z,1.20
2019-01-18T20:30:24.141Z,1.20
2019-01-18T20:33:14.226Z,1.20
2019-01-18T20:35:47.193Z,1.20
2019-01-18T20:38:24.292Z,1.20
2019-01-18T20:41:13.771Z,1.20
2019-01-18T20:43:46.821Z,1.30
2019-01-18T20:46:32.658Z,1.30
2019-01-18T20:49:20.773Z,1.20
2019-01-18T20:51:51.493Z,1.10
2019-01-18T20:54:27.480Z,1.10
2019-01-18T20:57:27.510Z,1.20
2019-01-18T21:00:32.856Z,1.10
2019-01-18T21:03:12.470Z,1.10
2019-01-18T21:05:48.859Z,1.10
2019-01-18T21:08:28.870Z,1.10
2019-01-18T21:11:08.069Z,1.10
2019-01-18T21:13:47.374Z,1.10
2019-01-18T21:16:35.921Z,1.10
2019-01-18T21:19:20.742Z,1.10
2019-01-18T21:22:19.564Z,1.10
2019-01-18T21:25:19.254Z,1.00
2019-01-18T21:28:04.740Z,1.10
2019-01-18T21:30:37.813Z,1.10
2019-01-18T21:33:42.142Z,1.10
2019-01-18T21:36:33.908Z,1.00
2019-01-18T21:39:37.848Z,1.00
2019-01-18T21:42:11.319Z,1.00
2019-01-18T21:44:44.343Z,1.00
2019-01-18T21:47:29.985Z,0.90
2019-01-18T21:50:09.613Z,0.90
2019-01-18T21:52:42.790Z,0.90
2019-01-18T21:55:15.774Z,0.90
2019-01-18T21:57:51.727Z,0.90
2019-01-18T22:00:24.859Z,1.00
2019-01-18T22:03:12.813Z,1.00
2019-01-18T22:05:58.419Z,0.90
2019-01-18T22:08:42.978Z,0.90
2019-01-18T22:11:16.134Z,0.90
2019-01-18T22:13:52.324Z,0.90
2019-01-18T22:16:31.354Z,0.90
2019-01-18T22:19:18.444Z,0.90
2019-01-18T22:22:17.775Z,0.90
2019-01-18T22:24:55.878Z,0.90
2019-01-18T22:27:26.116Z,0.90
2019-01-18T22:30:12.845Z,0.90
2019-01-18T22:32:55.347Z,1.00
2019-01-18T22:35:28.590Z,1.00
2019-01-18T22:38:14.254Z,0.90
2019-01-18T22:41:10.476Z,0.90
2019-01-18T22:43:55.225Z,0.90
2019-01-18T22:46:43.671Z,1.00
2019-01-18T22:49:33.687Z,0.90
2019-01-18T22:52:12.587Z,0.90
2019-01-18T22:54:57.906Z,0.90
2019-01-18T22:57:31.751Z,0.90
2019-01-18T23:00:35.148Z,0.90
2019-01-18T23:03:11.693Z,0.80
2019-01-18T23:05:56.983Z,0.90
2019-01-18T23:08:33.865Z,0.90
2019-01-18T23:11:14.719Z,0.80
2019-01-18T23:13:47.770Z,0.90
2019-01-18T23:16:33.628Z,0.80
2019-01-18T23:19:06.802Z,0.90
2019-01-18T23:21:54.127Z,0.80
2019-01-18T23:24:30.738Z,0.80
2019-01-18T23:27:20.157Z,0.80
2019-01-18T23:30:00.781Z,0.80
2019-01-18T23:32:46.331Z,0.80
2019-01-18T23:35:22.449Z,0.80
2019-01-18T23:38:08.630Z,0.80
2019-01-18T23:40:56.618Z,0.80
2019-01-18T23:43:36.020Z,0.80
2019-01-18T23:46:06.265Z,0.70
2019-01-18T23:48:40.283Z,0.70
2019-01-18T23:51:39.702Z,0.70
2019-01-18T23:54:28.973Z,0.70
2019-01-18T23:57:35.865Z,0.70
